createdAt,value
2018-11-26T00:01:07.215Z,8.40
2018-11-26T00:03:35.617Z,8.00
2018-11-26T00:06:04.090Z,8.50
2018-11-26T00:08:32.249Z,8.40
2018-11-26T00:11:18.411Z,8.30
2018-11-26T00:13:46.627Z,8.10
2018-11-26T00:16:14.760Z,8.20
2018-11-26T00:18:43.125Z,8.10
2018-11-26T00:21:11.503Z,8.30
2018-11-26T00:23:39.760Z,8.20
2018-11-26T00:26:07.992Z,8.60
2018-11-26T00:28:36.037Z,8.50
2018-11-26T00:31:04.343Z,7.90
2018-11-26T00:33:32.493Z,8.20
2018-11-26T00:36:00.653Z,8.80
2018-11-26T00:38:28.769Z,8.60
2018-11-26T00:40:57.045Z,8.40
2018-11-26T00:43:25.412Z,8.60
2018-11-26T00:45:53.691Z,8.20
2018-11-26T00:48:21.868Z,8.20
2018-11-26T00:50:50.152Z,8.00
2018-11-26T00:53:18.305Z,8.60
2018-11-26T00:55:46.500Z,8.80
2018-11-26T00:58:14.660Z,8.50
2018-11-26T01:00:42.793Z,8.50
2018-11-26T01:03:10.970Z,8.10
2018-11-26T01:05:39.994Z,8.30
2018-11-26T01:08:08.366Z,8.70
2018-11-26T01:10:36.652Z,8.30
2018-11-26T01:13:05.552Z,8.50
2018-11-26T01:15:33.690Z,8.40
2018-11-26T01:18:01.913Z,7.90
2018-11-26T01:20:30.155Z,7.80
2018-11-26T01:22:58.395Z,8.20
2018-11-26T01:25:26.519Z,8.10
2018-11-26T01:27:54.778Z,8.00
2018-11-26T01:30:22.924Z,8.00
2018-11-26T01:32:51.159Z,7.80
2018-11-26T01:35:19.289Z,7.90
2018-11-26T01:37:47.398Z,7.70
2018-11-26T01:40:28.755Z,7.80
2018-11-26T01:42:57.237Z,8.10
2018-11-26T01:45:25.512Z,8.20
2018-11-26T01:47:53.911Z,8.00
2018-11-26T01:50:22.057Z,8.10
2018-11-26T01:52:50.197Z,8.30
2018-11-26T01:55:18.315Z,8.10
2018-11-26T01:57:46.431Z,7.80
2018-11-26T02:00:18.446Z,8.10
2018-11-26T02:02:46.647Z,8.30
2018-11-26T02:05:14.804Z,7.70
2018-11-26T02:07:43.047Z,7.90
2018-11-26T02:10:14.639Z,8.50
2018-11-26T02:12:42.705Z,7.90
2018-11-26T02:15:20.635Z,8.10
2018-11-26T02:17:48.825Z,8.10
2018-11-26T02:20:17.070Z,8.60
2018-11-26T02:22:45.288Z,8.10
2018-11-26T02:25:13.505Z,8.40
2018-11-26T02:27:41.644Z,8.30
2018-11-26T02:30:10.312Z,8.50
2018-11-26T02:32:38.533Z,8.10
2018-11-26T02:35:07.241Z,7.90
2018-11-26T02:37:35.402Z,8.30
2018-11-26T02:40:04.136Z,8.00
2018-11-26T02:42:32.258Z,7.60
2018-11-26T02:45:00.603Z,7.90
2018-11-26T02:47:28.685Z,8.10
2018-11-26T02:49:56.786Z,8.20
2018-11-26T02:52:24.935Z,8.40
2018-11-26T02:54:53.016Z,8.20
2018-11-26T02:57:21.098Z,7.70
2018-11-26T02:59:55.680Z,8.20
2018-11-26T03:02:23.790Z,8.10
2018-11-26T03:04:51.957Z,7.90
2018-11-26T03:07:20.048Z,8.20
2018-11-26T03:09:48.200Z,7.90
2018-11-26T03:12:16.312Z,7.90
2018-11-26T03:14:44.450Z,8.20
2018-11-26T03:17:12.674Z,7.80
2018-11-26T03:19:40.733Z,8.10
2018-11-26T03:22:08.965Z,8.20
2018-11-26T03:24:37.193Z,7.80
2018-11-26T03:27:06.002Z,8.00
2018-11-26T03:29:34.210Z,7.90
2018-11-26T03:32:02.495Z,7.70
2018-11-26T03:34:30.534Z,8.00
2018-11-26T03:36:58.658Z,7.90
2018-11-26T03:39:26.750Z,7.80
2018-11-26T03:41:55.059Z,8.10
2018-11-26T03:44:23.155Z,8.20
2018-11-26T03:46:51.368Z,7.90
2018-11-26T03:49:19.477Z,7.50
2018-11-26T03:51:47.569Z,7.60
2018-11-26T03:54:15.700Z,7.90
2018-11-26T03:56:43.816Z,7.80
2018-11-26T03:59:11.969Z,7.50
2018-11-26T04:01:40.194Z,7.80
2018-11-26T04:04:08.540Z,7.70
2018-11-26T04:06:36.645Z,7.70
2018-11-26T04:09:07.759Z,7.70
2018-11-26T04:11:36.334Z,7.50
2018-11-26T04:14:04.629Z,7.50
2018-11-26T04:16:32.751Z,7.50
2018-11-26T04:19:00.861Z,7.50
2018-11-26T04:21:28.933Z,7.20
2018-11-26T04:23:56.961Z,7.50
2018-11-26T04:26:25.048Z,7.10
2018-11-26T04:28:53.182Z,7.20
2018-11-26T04:31:21.317Z,6.80
2018-11-26T04:33:49.369Z,7.00
2018-11-26T04:36:17.494Z,6.90
2018-11-26T04:38:45.568Z,6.80
2018-11-26T04:41:13.685Z,6.60
2018-11-26T04:43:41.800Z,7.00
2018-11-26T04:46:09.992Z,7.30
2018-11-26T04:48:38.100Z,7.20
2018-11-26T04:51:06.385Z,6.70
2018-11-26T04:53:34.520Z,6.90
2018-11-26T04:56:02.616Z,7.00
2018-11-26T04:58:30.743Z,7.10
2018-11-26T05:00:58.897Z,7.20
2018-11-26T05:03:27.820Z,7.20
2018-11-26T05:05:55.997Z,7.20
2018-11-26T05:08:24.192Z,7.20
2018-11-26T05:10:52.371Z,7.00
2018-11-26T05:13:20.498Z,7.20
2018-11-26T05:15:48.623Z,7.30
2018-11-26T05:18:16.891Z,7.30
2018-11-26T05:20:46.017Z,7.40
2018-11-26T05:23:14.270Z,7.70
2018-11-26T05:25:42.465Z,7.80
2018-11-26T05:28:10.681Z,7.40
2018-11-26T05:30:38.826Z,7.40
2018-11-26T05:33:07.042Z,7.20
2018-11-26T05:35:35.201Z,6.80
2018-11-26T05:38:03.478Z,6.80
2018-11-26T05:40:31.569Z,7.40
2018-11-26T05:42:59.748Z,7.40
2018-11-26T05:45:28.892Z,7.40
2018-11-26T05:47:56.964Z,7.10
2018-11-26T05:50:25.016Z,7.20
2018-11-26T05:52:53.089Z,6.90
2018-11-26T05:55:21.382Z,7.10
2018-11-26T05:57:49.468Z,7.30
2018-11-26T06:00:29.249Z,7.10
2018-11-26T06:02:57.373Z,7.20
2018-11-26T06:05:25.502Z,7.30
2018-11-26T06:07:53.718Z,7.30
2018-11-26T06:10:22.035Z,7.40
2018-11-26T06:12:50.246Z,7.50
2018-11-26T06:15:18.606Z,7.30
2018-11-26T06:17:46.762Z,6.90
2018-11-26T06:20:15.164Z,7.10
2018-11-26T06:22:45.781Z,7.10
2018-11-26T06:25:21.803Z,7.00
2018-11-26T06:27:49.983Z,6.80
2018-11-26T06:30:19.332Z,6.90
2018-11-26T06:32:47.517Z,7.10
2018-11-26T06:35:21.503Z,7.20
2018-11-26T06:37:49.690Z,7.60
2018-11-26T06:40:17.854Z,7.70
2018-11-26T06:42:46.181Z,7.50
2018-11-26T06:45:17.454Z,7.30
2018-11-26T06:47:45.685Z,6.90
2018-11-26T06:50:15.316Z,6.90
2018-11-26T06:52:43.665Z,7.10
2018-11-26T06:55:20.027Z,7.00
2018-11-26T06:57:48.277Z,6.80
2018-11-26T07:00:19.498Z,6.60
2018-11-26T07:02:47.938Z,6.60
2018-11-26T07:05:21.083Z,6.60
2018-11-26T07:07:49.325Z,7.10
2018-11-26T07:10:18.581Z,7.00
2018-11-26T07:12:46.808Z,6.70
2018-11-26T07:15:16.873Z,6.80
2018-11-26T07:17:45.164Z,6.80
2018-11-26T07:20:16.239Z,7.00
2018-11-26T07:22:44.410Z,6.70
2018-11-26T07:25:17.535Z,6.80
2018-11-26T07:27:47.737Z,7.10
2018-11-26T07:30:19.732Z,7.10
2018-11-26T07:32:47.882Z,6.80
2018-11-26T07:35:16.276Z,7.10
2018-11-26T07:37:44.469Z,6.80
2018-11-26T07:40:21.122Z,6.40
2018-11-26T07:43:01.048Z,6.60
2018-11-26T07:45:29.929Z,7.20
2018-11-26T07:47:58.085Z,7.30
2018-11-26T07:50:26.263Z,7.20
2018-11-26T07:52:54.445Z,7.10
2018-11-26T07:55:22.771Z,7.20
2018-11-26T07:57:50.932Z,7.70
2018-11-26T08:00:20.097Z,7.40
2018-11-26T08:02:48.742Z,7.40
2018-11-26T08:05:22.892Z,7.30
2018-11-26T08:07:51.103Z,7.70
2018-11-26T08:10:20.888Z,7.40
2018-11-26T08:12:50.365Z,7.60
2018-11-26T08:15:22.694Z,7.10
2018-11-26T08:17:51.014Z,7.30
2018-11-26T08:20:19.218Z,7.30
2018-11-26T08:22:47.584Z,7.30
2018-11-26T08:25:18.020Z,7.20
2018-11-26T08:27:47.689Z,7.50
2018-11-26T08:30:19.280Z,7.20
2018-11-26T08:32:50.106Z,7.70
2018-11-26T08:35:18.539Z,7.60
2018-11-26T08:37:52.200Z,7.30
2018-11-26T08:40:27.898Z,7.40
2018-11-26T08:43:11.569Z,7.70
2018-11-26T08:45:49.063Z,7.60
2018-11-26T08:48:23.243Z,8.00
2018-11-26T08:50:51.442Z,7.20
2018-11-26T08:53:19.762Z,7.70
2018-11-26T08:55:51.816Z,7.70
2018-11-26T08:58:20.077Z,7.90
2018-11-26T09:00:53.837Z,8.00
2018-11-26T09:03:22.019Z,7.90
2018-11-26T09:05:56.209Z,7.80
2018-11-26T09:08:24.307Z,7.80
2018-11-26T09:10:59.425Z,7.60
2018-11-26T09:13:27.716Z,7.90
2018-11-26T09:15:55.971Z,8.20
2018-11-26T09:18:24.152Z,8.90
2018-11-26T09:20:52.381Z,8.60
2018-11-26T09:23:20.639Z,8.90
2018-11-26T09:25:48.784Z,8.40
2018-11-26T09:28:17.078Z,8.00
2018-11-26T09:30:45.209Z,8.50
2018-11-26T09:33:13.432Z,8.30
2018-11-26T09:35:41.817Z,8.20
2018-11-26T09:38:09.991Z,8.20
2018-11-26T09:40:38.470Z,8.40
2018-11-26T09:43:07.481Z,8.20
2018-11-26T09:45:40.012Z,8.60
2018-11-26T09:48:04.323Z,8.30
2018-11-26T09:50:32.760Z,9.00
2018-11-26T09:53:01.083Z,8.90
2018-11-26T09:55:30.338Z,9.30
2018-11-26T09:57:58.713Z,9.40
2018-11-26T10:00:27.176Z,9.20
2018-11-26T10:02:55.444Z,8.90
2018-11-26T10:05:25.726Z,8.60
2018-11-26T10:07:54.578Z,8.60
2018-11-26T10:10:22.953Z,9.50
2018-11-26T10:12:51.236Z,9.40
2018-11-26T10:15:23.303Z,8.70
2018-11-26T10:17:51.799Z,9.20
2018-11-26T10:20:20.166Z,9.60
2018-11-26T10:22:49.744Z,9.40
2018-11-26T10:25:20.373Z,9.20
2018-11-26T10:27:48.669Z,9.10
2018-11-26T10:30:19.037Z,9.20
2018-11-26T10:32:48.856Z,9.30
2018-11-26T10:35:18.120Z,9.60
2018-11-26T10:37:46.491Z,10.00
2018-11-26T10:40:20.987Z,9.40
2018-11-26T10:42:49.305Z,10.00
2018-11-26T10:45:19.934Z,9.80
2018-11-26T10:47:48.251Z,8.90
2018-11-26T10:50:20.260Z,9.00
2018-11-26T10:52:57.662Z,9.40
2018-11-26T10:55:32.147Z,9.80
2018-11-26T10:58:00.427Z,9.80
2018-11-26T11:00:34.355Z,10.10
2018-11-26T11:03:02.597Z,9.90
2018-11-26T11:05:31.600Z,9.80
2018-11-26T11:07:59.825Z,9.30
2018-11-26T11:10:29.478Z,9.80
2018-11-26T11:12:57.802Z,10.10
2018-11-26T11:15:26.013Z,10.30
2018-11-26T11:17:54.407Z,9.50
2018-11-26T11:20:25.815Z,9.30
2018-11-26T11:22:53.958Z,9.60
2018-11-26T11:25:22.494Z,9.80
2018-11-26T11:27:51.119Z,10.60
2018-11-26T11:30:22.908Z,10.40
2018-11-26T11:32:51.349Z,9.90
2018-11-26T11:35:19.839Z,9.30
2018-11-26T11:37:49.397Z,9.70
2018-11-26T11:40:33.655Z,10.00
2018-11-26T11:43:01.813Z,9.50
2018-11-26T11:45:31.894Z,9.60
2018-11-26T11:48:00.048Z,9.80
2018-11-26T11:50:28.256Z,9.80
2018-11-26T11:52:56.485Z,9.70
2018-11-26T11:55:25.924Z,9.60
2018-11-26T11:57:54.247Z,9.80
2018-11-26T12:00:36.356Z,10.00
2018-11-26T12:03:11.209Z,9.50
2018-11-26T12:05:39.461Z,9.50
2018-11-26T12:08:08.273Z,9.70
2018-11-26T12:10:36.494Z,9.30
2018-11-26T12:13:07.157Z,9.70
2018-11-26T12:15:49.729Z,9.40
2018-11-26T12:18:17.965Z,9.80
2018-11-26T12:20:46.442Z,9.10
2018-11-26T12:23:14.802Z,9.40
2018-11-26T12:25:43.723Z,9.70
2018-11-26T12:28:12.170Z,9.20
2018-11-26T12:30:43.739Z,9.40
2018-11-26T12:33:12.688Z,9.20
2018-11-26T12:35:41.001Z,9.30
2018-11-26T12:38:09.410Z,9.90
2018-11-26T12:40:37.865Z,9.90
2018-11-26T12:43:06.863Z,9.70
2018-11-26T12:45:35.427Z,9.20
2018-11-26T12:48:03.612Z,9.90
2018-11-26T12:50:31.890Z,9.20
2018-11-26T12:53:00.131Z,9.50
2018-11-26T12:55:28.540Z,9.10
2018-11-26T12:57:57.441Z,9.50
2018-11-26T13:00:29.364Z,9.40
2018-11-26T13:03:07.621Z,9.80
2018-11-26T13:05:36.126Z,9.60
2018-11-26T13:08:04.447Z,9.20
2018-11-26T13:10:32.782Z,9.60
2018-11-26T13:13:01.030Z,9.70
2018-11-26T13:15:29.715Z,9.50
2018-11-26T13:17:57.784Z,9.20
2018-11-26T13:20:27.895Z,9.00
2018-11-26T13:22:56.378Z,9.30
2018-11-26T13:25:32.877Z,8.70
2018-11-26T13:28:02.564Z,9.20
2018-11-26T13:30:34.435Z,9.40
2018-11-26T13:33:19.140Z,9.00
2018-11-26T13:35:49.128Z,9.00
2018-11-26T13:38:17.089Z,9.10
2018-11-26T13:40:45.567Z,8.90
2018-11-26T13:43:15.816Z,9.20
2018-11-26T13:45:47.745Z,8.80
2018-11-26T13:48:17.728Z,9.60
2018-11-26T13:50:50.519Z,9.00
2018-11-26T13:53:18.786Z,9.10
2018-11-26T13:55:47.307Z,9.20
2018-11-26T13:58:15.628Z,9.10
2018-11-26T14:00:44.032Z,9.20
2018-11-26T14:03:12.404Z,9.00
2018-11-26T14:05:40.784Z,9.40
2018-11-26T14:08:09.095Z,9.60
2018-11-26T14:10:37.414Z,9.10
2018-11-26T14:13:11.612Z,9.40
2018-11-26T14:15:40.312Z,9.30
2018-11-26T14:18:08.628Z,9.40
2018-11-26T14:20:36.819Z,9.40
2018-11-26T14:23:05.968Z,9.50
2018-11-26T14:25:34.155Z,8.90
2018-11-26T14:28:02.320Z,8.60
2018-11-26T14:30:30.626Z,8.60
2018-11-26T14:32:58.864Z,9.10
2018-11-26T14:35:27.283Z,9.30
2018-11-26T14:37:59.499Z,9.20
2018-11-26T14:40:31.319Z,8.90
2018-11-26T14:42:59.678Z,8.90
2018-11-26T14:45:27.949Z,9.20
2018-11-26T14:47:56.434Z,8.90
2018-11-26T14:50:24.709Z,8.90
2018-11-26T14:52:52.971Z,9.00
2018-11-26T14:55:26.167Z,8.90
2018-11-26T14:57:54.420Z,9.20
2018-11-26T15:00:22.870Z,9.10
2018-11-26T15:02:51.104Z,9.00
2018-11-26T15:05:19.372Z,9.00
2018-11-26T15:07:47.724Z,9.00
2018-11-26T15:10:18.793Z,8.80
2018-11-26T15:12:47.295Z,8.10
2018-11-26T15:15:17.103Z,8.30
2018-11-26T15:17:50.493Z,8.00
2018-11-26T15:20:21.823Z,8.20
2018-11-26T15:22:51.418Z,8.50
2018-11-26T15:25:21.435Z,8.20
2018-11-26T15:27:51.137Z,8.40
2018-11-26T15:30:20.480Z,8.10
2018-11-26T15:32:48.854Z,8.20
2018-11-26T15:35:18.806Z,8.00
2018-11-26T15:37:47.080Z,8.00
2018-11-26T15:40:17.102Z,8.30
2018-11-26T15:42:45.412Z,8.20
2018-11-26T15:45:22.481Z,7.90
2018-11-26T15:47:52.285Z,8.50
2018-11-26T15:50:20.927Z,8.50
2018-11-26T15:52:49.252Z,8.40
2018-11-26T15:55:18.989Z,8.20
2018-11-26T15:57:47.615Z,8.20
2018-11-26T16:00:23.811Z,8.40
2018-11-26T16:02:52.590Z,8.10
2018-11-26T16:05:22.673Z,8.40
2018-11-26T16:07:51.469Z,9.00
2018-11-26T16:10:19.868Z,8.20
2018-11-26T16:12:50.539Z,8.20
2018-11-26T16:15:22.943Z,8.40
2018-11-26T16:17:51.819Z,8.60
2018-11-26T16:20:23.532Z,8.40
2018-11-26T16:22:51.748Z,8.40
2018-11-26T16:25:22.105Z,8.10
2018-11-26T16:27:50.590Z,8.30
2018-11-26T16:30:19.375Z,7.80
2018-11-26T16:32:52.384Z,7.70
2018-11-26T16:35:23.448Z,7.90
2018-11-26T16:37:51.739Z,7.90
2018-11-26T16:40:19.973Z,8.00
2018-11-26T16:42:48.286Z,8.30
2018-11-26T16:45:19.124Z,8.00
2018-11-26T16:47:49.432Z,8.10
2018-11-26T16:50:19.625Z,7.90
2018-11-26T16:52:47.936Z,7.60
2018-11-26T16:55:17.019Z,7.70
2018-11-26T16:57:45.697Z,8.00
2018-11-26T17:00:19.455Z,7.70
2018-11-26T17:02:49.328Z,7.90
2018-11-26T17:05:19.831Z,8.00
2018-11-26T17:07:48.176Z,7.80
2018-11-26T17:10:16.521Z,7.90
2018-11-26T17:12:44.813Z,7.90
2018-11-26T17:15:19.886Z,7.80
2018-11-26T17:17:48.080Z,7.90
2018-11-26T17:20:17.204Z,8.40
2018-11-26T17:22:45.535Z,7.80
2018-11-26T17:25:15.011Z,7.80
2018-11-26T17:27:44.177Z,7.90
2018-11-26T17:30:20.322Z,7.90
2018-11-26T17:32:51.728Z,8.10
2018-11-26T17:35:20.062Z,7.80
2018-11-26T17:37:48.601Z,7.90
2018-11-26T17:40:20.935Z,8.10
2018-11-26T17:42:49.375Z,7.70
2018-11-26T17:45:18.137Z,7.40
2018-11-26T17:47:49.865Z,7.20
2018-11-26T17:50:21.117Z,7.20
2018-11-26T17:52:49.462Z,7.80
2018-11-26T17:55:17.947Z,8.30
2018-11-26T17:57:46.409Z,8.10
2018-11-26T18:00:18.558Z,7.90
2018-11-26T18:02:46.900Z,7.80
2018-11-26T18:05:17.469Z,8.10
2018-11-26T18:07:54.780Z,7.60
2018-11-26T18:10:23.399Z,7.70
2018-11-26T18:12:52.106Z,7.60
2018-11-26T18:15:20.467Z,7.00
2018-11-26T18:17:48.847Z,7.20
2018-11-26T18:20:20.820Z,7.10
2018-11-26T18:22:51.196Z,7.60
2018-11-26T18:25:20.896Z,8.00
2018-11-26T18:27:56.356Z,7.40
2018-11-26T18:30:43.484Z,7.40
2018-11-26T18:33:12.172Z,8.10
2018-11-26T18:35:41.464Z,7.20
2018-11-26T18:38:09.985Z,7.60
2018-11-26T18:40:40.373Z,7.70
2018-11-26T18:43:09.396Z,7.70
2018-11-26T18:45:39.526Z,7.40
2018-11-26T18:48:10.025Z,7.40
2018-11-26T18:50:38.594Z,7.80
2018-11-26T18:53:07.891Z,7.30
2018-11-26T18:55:37.669Z,7.70
2018-11-26T18:58:06.746Z,7.40
2018-11-26T19:00:40.248Z,6.90
2018-11-26T19:03:08.613Z,6.50
2018-11-26T19:05:36.986Z,7.30
2018-11-26T19:08:05.786Z,7.80
2018-11-26T19:10:36.598Z,7.80
2018-11-26T19:13:13.357Z,8.00
2018-11-26T19:15:46.172Z,7.60
2018-11-26T19:18:19.539Z,7.60
2018-11-26T19:20:47.973Z,7.20
2018-11-26T19:23:16.356Z,7.50
2018-11-26T19:25:45.692Z,7.30
2018-11-26T19:28:14.237Z,7.20
2018-11-26T19:30:42.809Z,7.10
2018-11-26T19:33:12.339Z,7.50
2018-11-26T19:35:40.658Z,7.20
2018-11-26T19:38:09.101Z,6.80
2018-11-26T19:40:40.121Z,7.30
2018-11-26T19:43:09.233Z,7.10
2018-11-26T19:45:38.010Z,6.60
2018-11-26T19:48:07.887Z,6.90
2018-11-26T19:50:36.457Z,6.60
2018-11-26T19:53:07.859Z,6.90
2018-11-26T19:55:36.448Z,6.80
2018-11-26T19:58:07.976Z,6.90
2018-11-26T20:00:39.070Z,6.70
2018-11-26T20:03:28.108Z,6.60
2018-11-26T20:06:15.182Z,6.50
2018-11-26T20:08:45.828Z,6.50
2018-11-26T20:11:14.231Z,6.30
2018-11-26T20:13:42.958Z,6.50
2018-11-26T20:16:15.533Z,6.20
2018-11-26T20:18:43.867Z,6.30
2018-11-26T20:21:12.260Z,6.50
2018-11-26T20:23:40.920Z,6.50
2018-11-26T20:26:09.485Z,6.80
2018-11-26T20:28:39.486Z,6.40
2018-11-26T20:31:09.005Z,7.00
2018-11-26T20:33:37.500Z,6.30
2018-11-26T20:36:09.235Z,6.50
2018-11-26T20:38:37.838Z,6.40
2018-11-26T20:41:08.605Z,6.30
2018-11-26T20:43:37.800Z,6.20
2018-11-26T20:46:06.656Z,6.80
2018-11-26T20:48:35.955Z,6.80
2018-11-26T20:51:05.719Z,6.40
2018-11-26T20:53:34.135Z,6.70
2018-11-26T20:56:10.793Z,6.80
2018-11-26T20:58:39.121Z,6.70
2018-11-26T21:01:07.438Z,6.50
2018-11-26T21:03:35.864Z,6.40
2018-11-26T21:06:04.590Z,6.60
2018-11-26T21:08:32.986Z,6.40
2018-11-26T21:11:01.359Z,6.50
2018-11-26T21:13:29.784Z,6.30
2018-11-26T21:15:58.150Z,6.10
2018-11-26T21:18:26.526Z,6.10
2018-11-26T21:20:55.056Z,6.20
2018-11-26T21:23:32.818Z,6.60
2018-11-26T21:26:03.866Z,6.20
2018-11-26T21:28:32.483Z,6.10
2018-11-26T21:31:01.114Z,6.40
2018-11-26T21:33:29.542Z,6.40
2018-11-26T21:35:57.841Z,6.30
2018-11-26T21:38:26.299Z,6.40
2018-11-26T21:40:54.592Z,6.80
2018-11-26T21:43:23.075Z,6.60
2018-11-26T21:46:01.944Z,6.40
2018-11-26T21:48:30.366Z,6.40
2018-11-26T21:50:58.727Z,5.80
2018-11-26T21:53:27.114Z,6.30
2018-11-26T21:55:55.426Z,5.90
2018-11-26T21:58:23.829Z,6.10
2018-11-26T22:00:55.122Z,6.10
2018-11-26T22:03:23.389Z,6.10
2018-11-26T22:05:51.660Z,6.00
2018-11-26T22:08:19.945Z,5.90
2018-11-26T22:10:48.338Z,6.30
2018-11-26T22:13:19.675Z,6.20
2018-11-26T22:15:48.149Z,6.00
2018-11-26T22:18:16.507Z,6.00
2018-11-26T22:20:44.797Z,6.00
2018-11-26T22:23:13.241Z,5.60
2018-11-26T22:25:41.539Z,5.80
2018-11-26T22:28:10.743Z,5.40
2018-11-26T22:30:40.040Z,5.70
2018-11-26T22:33:09.133Z,5.60
2018-11-26T22:35:37.020Z,5.80
2018-11-26T22:38:06.362Z,5.70
2018-11-26T22:40:34.746Z,5.60
2018-11-26T22:43:03.196Z,5.70
2018-11-26T22:45:32.471Z,6.00
2018-11-26T22:48:09.554Z,5.80
2018-11-26T22:50:40.578Z,5.70
2018-11-26T22:53:09.407Z,5.90
2018-11-26T22:55:37.762Z,5.90
2018-11-26T22:58:10.273Z,5.60
2018-11-26T23:00:49.170Z,6.20
2018-11-26T23:03:19.354Z,6.00
2018-11-26T23:05:47.610Z,6.20
2018-11-26T23:08:15.890Z,6.40
2018-11-26T23:10:44.143Z,5.80
2018-11-26T23:13:12.480Z,5.90
2018-11-26T23:15:40.842Z,5.70
2018-11-26T23:18:09.230Z,5.60
2018-11-26T23:20:37.502Z,5.90
2018-11-26T23:23:06.035Z,6.10
2018-11-26T23:25:34.304Z,5.90
2018-11-26T23:28:02.966Z,5.60
2018-11-26T23:30:31.683Z,5.60
2018-11-26T23:33:01.731Z,5.40
2018-11-26T23:35:30.114Z,5.40
2018-11-26T23:37:58.320Z,5.50
2018-11-26T23:40:26.592Z,5.50
2018-11-26T23:42:54.967Z,5.90
2018-11-26T23:45:25.666Z,5.90
2018-11-26T23:47:53.991Z,6.30
2018-11-26T23:50:22.319Z,5.80
2018-11-26T23:52:50.574Z,6.00
2018-11-26T23:55:20.376Z,6.10
2018-11-26T23:57:49.449Z,5.60
